sensor_id;sensor_type;location;lat;lon;timestamp;P1;durP1;ratioP1;P2;durP2;ratioP2
7193;SDS011;3638;48.820;9.244;2023-01-25T00:00:27;27.87;;;20.00;;
7193;SDS011;3638;48.820;9.244;2023-01-25T00:02:55;30.57;;;20.77;;
7193;SDS011;3638;48.820;9.244;2023-01-25T00:05:22;29.03;;;20.33;;
7193;SDS011;3638;48.820;9.244;2023-01-25T00:07:52;25.67;;;19.20;;
7193;SDS011;3638;48.820;9.244;2023-01-25T00:10:19;27.63;;;20.13;;
7193;SDS011;3638;48.820;9.244;2023-01-25T00:12:48;27.97;;;19.73;;
7193;SDS011;3638;48.820;9.244;2023-01-25T00:15:15;25.80;;;19.30;;
7193;SDS011;3638;48.820;9.244;2023-01-25T00:17:42;30.53;;;20.20;;
7193;SDS011;3638;48.820;9.244;2023-01-25T00:20:09;27.90;;;19.53;;
7193;SDS011;3638;48.820;9.244;2023-01-25T00:22:36;28.37;;;21.70;;
7193;SDS011;3638;48.820;9.244;2023-01-25T00:25:03;28.23;;;20.07;;
7193;SDS011;3638;48.820;9.244;2023-01-25T00:27:31;30.03;;;19.80;;
7193;SDS011;3638;48.820;9.244;2023-01-25T00:29:59;29.03;;;20.27;;
7193;SDS011;3638;48.820;9.244;2023-01-25T00:32:27;28.03;;;21.30;;
7193;SDS011;3638;48.820;9.244;2023-01-25T00:35:02;27.40;;;19.10;;
7193;SDS011;3638;48.820;9.244;2023-01-25T00:37:34;27.73;;;19.63;;
7193;SDS011;3638;48.820;9.244;2023-01-25T00:40:03;28.03;;;19.57;;
7193;SDS011;3638;48.820;9.244;2023-01-25T00:42:31;26.63;;;20.00;;
7193;SDS011;3638;48.820;9.244;2023-01-25T00:45:00;27.00;;;19.30;;
7193;SDS011;3638;48.820;9.244;2023-01-25T00:47:26;29.37;;;19.80;;
7193;SDS011;3638;48.820;9.244;2023-01-25T00:49:54;29.07;;;20.30;;
7193;SDS011;3638;48.820;9.244;2023-01-25T00:52:20;29.13;;;19.77;;
7193;SDS011;3638;48.820;9.244;2023-01-25T00:54:47;26.13;;;19.70;;
7193;SDS011;3638;48.820;9.244;2023-01-25T00:57:14;28.10;;;20.30;;
7193;SDS011;3638;48.820;9.244;2023-01-25T00:59:41;29.97;;;19.37;;
7193;SDS011;3638;48.820;9.244;2023-01-25T01:02:10;28.80;;;20.03;;
7193;SDS011;3638;48.820;9.244;2023-01-25T01:04:38;29.90;;;19.03;;
7193;SDS011;3638;48.820;9.244;2023-01-25T01:07:05;26.17;;;18.63;;
7193;SDS011;3638;48.820;9.244;2023-01-25T01:09:31;28.80;;;19.40;;
7193;SDS011;3638;48.820;9.244;2023-01-25T01:11:59;27.47;;;20.03;;
7193;SDS011;3638;48.820;9.244;2023-01-25T01:14:26;28.03;;;19.10;;
7193;SDS011;3638;48.820;9.244;2023-01-25T01:16:53;27.47;;;19.27;;
7193;SDS011;3638;48.820;9.244;2023-01-25T01:19:21;27.30;;;19.57;;
7193;SDS011;3638;48.820;9.244;2023-01-25T01:21:48;27.60;;;19.63;;
7193;SDS011;3638;48.820;9.244;2023-01-25T01:24:15;27.37;;;19.70;;
7193;SDS011;3638;48.820;9.244;2023-01-25T01:26:44;26.57;;;19.70;;
7193;SDS011;3638;48.820;9.244;2023-01-25T01:29:11;27.63;;;18.57;;
7193;SDS011;3638;48.820;9.244;2023-01-25T01:31:38;27.37;;;19.43;;
7193;SDS011;3638;48.820;9.244;2023-01-25T01:34:05;28.20;;;19.33;;
7193;SDS011;3638;48.820;9.244;2023-01-25T01:36:33;25.77;;;19.23;;
7193;SDS011;3638;48.820;9.244;2023-01-25T01:39:00;27.10;;;18.03;;
7193;SDS011;3638;48.820;9.244;2023-01-25T01:41:27;27.93;;;19.73;;
7193;SDS011;3638;48.820;9.244;2023-01-25T01:43:53;24.70;;;17.40;;
7193;SDS011;3638;48.820;9.244;2023-01-25T01:46:21;29.80;;;17.93;;
7193;SDS011;3638;48.820;9.244;2023-01-25T01:48:53;25.77;;;17.93;;
7193;SDS011;3638;48.820;9.244;2023-01-25T01:51:25;24.20;;;17.60;;
7193;SDS011;3638;48.820;9.244;2023-01-25T01:54:04;24.60;;;18.70;;
7193;SDS011;3638;48.820;9.244;2023-01-25T01:56:36;26.73;;;18.43;;
7193;SDS011;3638;48.820;9.244;2023-01-25T01:59:08;28.97;;;19.63;;
7193;SDS011;3638;48.820;9.244;2023-01-25T02:01:35;25.30;;;17.57;;
7193;SDS011;3638;48.820;9.244;2023-01-25T02:04:03;26.90;;;18.67;;
7193;SDS011;3638;48.820;9.244;2023-01-25T02:06:33;27.13;;;19.17;;
7193;SDS011;3638;48.820;9.244;2023-01-25T02:09:08;26.60;;;18.80;;
7193;SDS011;3638;48.820;9.244;2023-01-25T02:11:36;27.60;;;19.30;;
7193;SDS011;3638;48.820;9.244;2023-01-25T02:14:03;28.10;;;19.00;;
7193;SDS011;3638;48.820;9.244;2023-01-25T02:16:32;30.17;;;19.53;;
7193;SDS011;3638;48.820;9.244;2023-01-25T02:18:59;27.43;;;18.73;;
7193;SDS011;3638;48.820;9.244;2023-01-25T02:21:29;29.00;;;19.03;;
7193;SDS011;3638;48.820;9.244;2023-01-25T02:24:06;24.30;;;17.70;;
7193;SDS011;3638;48.820;9.244;2023-01-25T02:26:39;25.97;;;18.80;;
7193;SDS011;3638;48.820;9.244;2023-01-25T02:29:06;28.50;;;18.83;;
7193;SDS011;3638;48.820;9.244;2023-01-25T02:31:35;26.53;;;18.53;;
7193;SDS011;3638;48.820;9.244;2023-01-25T02:34:02;26.23;;;18.53;;
7193;SDS011;3638;48.820;9.244;2023-01-25T02:36:29;25.23;;;18.43;;
7193;SDS011;3638;48.820;9.244;2023-01-25T02:38:59;25.57;;;18.27;;
7193;SDS011;3638;48.820;9.244;2023-01-25T02:41:32;26.40;;;18.00;;
7193;SDS011;3638;48.820;9.244;2023-01-25T02:44:03;25.07;;;17.50;;
7193;SDS011;3638;48.820;9.244;2023-01-25T02:46:33;26.33;;;18.03;;
7193;SDS011;3638;48.820;9.244;2023-01-25T02:49:03;26.03;;;17.80;;
7193;SDS011;3638;48.820;9.244;2023-01-25T02:51:32;25.00;;;17.87;;
7193;SDS011;3638;48.820;9.244;2023-01-25T02:54:02;28.17;;;18.17;;
7193;SDS011;3638;48.820;9.244;2023-01-25T02:56:32;26.67;;;18.43;;
7193;SDS011;3638;48.820;9.244;2023-01-25T02:59:00;25.00;;;18.03;;
7193;SDS011;3638;48.820;9.244;2023-01-25T03:01:30;27.73;;;18.17;;
7193;SDS011;3638;48.820;9.244;2023-01-25T03:03:58;26.83;;;17.93;;
7193;SDS011;3638;48.820;9.244;2023-01-25T03:06:25;25.30;;;18.53;;
7193;SDS011;3638;48.820;9.244;2023-01-25T03:08:52;25.73;;;16.97;;
7193;SDS011;3638;48.820;9.244;2023-01-25T03:11:19;23.87;;;17.20;;
7193;SDS011;3638;48.820;9.244;2023-01-25T03:13:46;27.70;;;17.70;;
7193;SDS011;3638;48.820;9.244;2023-01-25T03:16:13;25.83;;;18.13;;
7193;SDS011;3638;48.820;9.244;2023-01-25T03:18:41;24.00;;;17.77;;
7193;SDS011;3638;48.820;9.244;2023-01-25T03:21:09;29.80;;;18.33;;
7193;SDS011;3638;48.820;9.244;2023-01-25T03:23:38;26.67;;;17.67;;
7193;SDS011;3638;48.820;9.244;2023-01-25T03:26:06;24.97;;;18.13;;
7193;SDS011;3638;48.820;9.244;2023-01-25T03:28:35;24.90;;;17.40;;
7193;SDS011;3638;48.820;9.244;2023-01-25T03:31:02;26.23;;;17.77;;
7193;SDS011;3638;48.820;9.244;2023-01-25T03:33:30;23.90;;;17.40;;
7193;SDS011;3638;48.820;9.244;2023-01-25T03:35:59;26.30;;;17.43;;
7193;SDS011;3638;48.820;9.244;2023-01-25T03:38:26;26.33;;;17.60;;
7193;SDS011;3638;48.820;9.244;2023-01-25T03:40:53;25.20;;;16.63;;
7193;SDS011;3638;48.820;9.244;2023-01-25T03:43:20;24.40;;;17.60;;
7193;SDS011;3638;48.820;9.244;2023-01-25T03:45:51;23.70;;;16.60;;
7193;SDS011;3638;48.820;9.244;2023-01-25T03:48:19;25.13;;;17.60;;
7193;SDS011;3638;48.820;9.244;2023-01-25T03:50:49;25.03;;;16.43;;
7193;SDS011;3638;48.820;9.244;2023-01-25T03:53:20;24.03;;;16.70;;
7193;SDS011;3638;48.820;9.244;2023-01-25T03:55:53;23.90;;;16.53;;
7193;SDS011;3638;48.820;9.244;2023-01-25T03:58:24;20.73;;;15.67;;
7193;SDS011;3638;48.820;9.244;2023-01-25T04:00:53;22.67;;;15.83;;
7193;SDS011;3638;48.820;9.244;2023-01-25T04:03:22;23.10;;;16.33;;
7193;SDS011;3638;48.820;9.244;2023-01-25T04:05:49;24.33;;;16.07;;
7193;SDS011;3638;48.820;9.244;2023-01-25T04:08:17;21.00;;;14.50;;
7193;SDS011;3638;48.820;9.244;2023-01-25T04:10:45;18.97;;;14.27;;
7193;SDS011;3638;48.820;9.244;2023-01-25T04:13:17;19.70;;;13.80;;
7193;SDS011;3638;48.820;9.244;2023-01-25T04:15:44;18.97;;;13.03;;
7193;SDS011;3638;48.820;9.244;2023-01-25T04:18:11;15.70;;;12.20;;
7193;SDS011;3638;48.820;9.244;2023-01-25T04:20:38;17.30;;;12.97;;
7193;SDS011;3638;48.820;9.244;2023-01-25T04:23:07;18.20;;;12.70;;
7193;SDS011;3638;48.820;9.244;2023-01-25T04:25:34;16.57;;;12.53;;
7193;SDS011;3638;48.820;9.244;2023-01-25T04:28:03;17.20;;;12.33;;
7193;SDS011;3638;48.820;9.244;2023-01-25T04:30:30;16.30;;;12.63;;
7193;SDS011;3638;48.820;9.244;2023-01-25T04:33:01;17.00;;;12.47;;
7193;SDS011;3638;48.820;9.244;2023-01-25T04:35:29;15.90;;;12.23;;
7193;SDS011;3638;48.820;9.244;2023-01-25T04:37:56;15.20;;;12.20;;
7193;SDS011;3638;48.820;9.244;2023-01-25T04:40:24;16.80;;;12.80;;
7193;SDS011;3638;48.820;9.244;2023-01-25T04:42:52;15.27;;;11.40;;
7193;SDS011;3638;48.820;9.244;2023-01-25T04:45:20;15.60;;;12.27;;
7193;SDS011;3638;48.820;9.244;2023-01-25T04:47:47;16.57;;;12.33;;
7193;SDS011;3638;48.820;9.244;2023-01-25T04:50:14;19.60;;;12.60;;
7193;SDS011;3638;48.820;9.244;2023-01-25T04:52:41;19.67;;;12.67;;
7193;SDS011;3638;48.820;9.244;2023-01-25T04:55:08;16.77;;;12.20;;
7193;SDS011;3638;48.820;9.244;2023-01-25T04:57:35;16.17;;;11.73;;
7193;SDS011;3638;48.820;9.244;2023-01-25T05:00:03;15.13;;;11.80;;
7193;SDS011;3638;48.820;9.244;2023-01-25T05:02:32;16.10;;;12.10;;
7193;SDS011;3638;48.820;9.244;2023-01-25T05:04:59;15.90;;;12.47;;
7193;SDS011;3638;48.820;9.244;2023-01-25T05:07:26;16.80;;;13.33;;
7193;SDS011;3638;48.820;9.244;2023-01-25T05:09:53;16.27;;;12.63;;
7193;SDS011;3638;48.820;9.244;2023-01-25T05:12:20;18.13;;;12.90;;
7193;SDS011;3638;48.820;9.244;2023-01-25T05:14:47;17.73;;;12.77;;
7193;SDS011;3638;48.820;9.244;2023-01-25T05:17:15;18.53;;;12.50;;
7193;SDS011;3638;48.820;9.244;2023-01-25T05:19:43;17.37;;;12.97;;
7193;SDS011;3638;48.820;9.244;2023-01-25T05:22:11;17.63;;;12.37;;
7193;SDS011;3638;48.820;9.244;2023-01-25T05:24:40;17.47;;;12.77;;
7193;SDS011;3638;48.820;9.244;2023-01-25T05:27:09;15.37;;;12.10;;
7193;SDS011;3638;48.820;9.244;2023-01-25T05:29:37;17.83;;;12.50;;
7193;SDS011;3638;48.820;9.244;2023-01-25T05:32:06;17.03;;;13.13;;
7193;SDS011;3638;48.820;9.244;2023-01-25T05:34:35;15.90;;;12.53;;
7193;SDS011;3638;48.820;9.244;2023-01-25T05:37:05;16.90;;;12.77;;
7193;SDS011;3638;48.820;9.244;2023-01-25T05:39:34;17.30;;;12.30;;
7193;SDS011;3638;48.820;9.244;2023-01-25T05:42:02;18.50;;;12.47;;
7193;SDS011;3638;48.820;9.244;2023-01-25T05:44:33;16.53;;;11.87;;
7193;SDS011;3638;48.820;9.244;2023-01-25T05:47:00;16.93;;;12.70;;
7193;SDS011;3638;48.820;9.244;2023-01-25T05:49:27;17.67;;;12.00;;
7193;SDS011;3638;48.820;9.244;2023-01-25T05:51:54;20.50;;;12.93;;
7193;SDS011;3638;48.820;9.244;2023-01-25T05:54:22;19.70;;;13.60;;
7193;SDS011;3638;48.820;9.244;2023-01-25T05:56:49;17.33;;;12.40;;
7193;SDS011;3638;48.820;9.244;2023-01-25T05:59:16;18.07;;;13.63;;
7193;SDS011;3638;48.820;9.244;2023-01-25T06:01:43;20.60;;;14.23;;
7193;SDS011;3638;48.820;9.244;2023-01-25T06:04:11;17.80;;;13.03;;
7193;SDS011;3638;48.820;9.244;2023-01-25T06:06:40;17.73;;;12.83;;
7193;SDS011;3638;48.820;9.244;2023-01-25T06:09:08;17.03;;;13.20;;
7193;SDS011;3638;48.820;9.244;2023-01-25T06:11:38;16.20;;;12.70;;
7193;SDS011;3638;48.820;9.244;2023-01-25T06:14:05;17.13;;;12.90;;
7193;SDS011;3638;48.820;9.244;2023-01-25T06:16:31;15.97;;;12.40;;
7193;SDS011;3638;48.820;9.244;2023-01-25T06:18:58;17.60;;;12.50;;
7193;SDS011;3638;48.820;9.244;2023-01-25T06:21:25;18.27;;;12.73;;
7193;SDS011;3638;48.820;9.244;2023-01-25T06:23:52;15.30;;;12.17;;
7193;SDS011;3638;48.820;9.244;2023-01-25T06:26:19;16.60;;;12.33;;
7193;SDS011;3638;48.820;9.244;2023-01-25T06:28:48;17.17;;;12.10;;
7193;SDS011;3638;48.820;9.244;2023-01-25T06:31:15;16.83;;;12.33;;
7193;SDS011;3638;48.820;9.244;2023-01-25T06:33:46;17.97;;;12.50;;
7193;SDS011;3638;48.820;9.244;2023-01-25T06:36:16;14.53;;;11.10;;
7193;SDS011;3638;48.820;9.244;2023-01-25T06:38:47;16.77;;;11.90;;
7193;SDS011;3638;48.820;9.244;2023-01-25T06:41:15;14.50;;;12.43;;
7193;SDS011;3638;48.820;9.244;2023-01-25T06:43:42;18.83;;;12.40;;
7193;SDS011;3638;48.820;9.244;2023-01-25T06:46:11;16.43;;;12.57;;
7193;SDS011;3638;48.820;9.244;2023-01-25T06:48:38;16.80;;;11.77;;
7193;SDS011;3638;48.820;9.244;2023-01-25T06:51:09;15.37;;;10.97;;
7193;SDS011;3638;48.820;9.244;2023-01-25T06:53:42;14.50;;;11.13;;
7193;SDS011;3638;48.820;9.244;2023-01-25T06:56:11;14.93;;;11.83;;
7193;SDS011;3638;48.820;9.244;2023-01-25T06:58:40;15.43;;;11.67;;
7193;SDS011;3638;48.820;9.244;2023-01-25T07:01:07;15.70;;;12.27;;
7193;SDS011;3638;48.820;9.244;2023-01-25T07:03:40;16.57;;;11.87;;
7193;SDS011;3638;48.820;9.244;2023-01-25T07:06:08;16.33;;;12.57;;
7193;SDS011;3638;48.820;9.244;2023-01-25T07:08:36;15.17;;;11.77;;
7193;SDS011;3638;48.820;9.244;2023-01-25T07:11:04;15.70;;;11.53;;
7193;SDS011;3638;48.820;9.244;2023-01-25T07:13:37;14.27;;;11.27;;
7193;SDS011;3638;48.820;9.244;2023-01-25T07:16:04;14.17;;;11.07;;
7193;SDS011;3638;48.820;9.244;2023-01-25T07:18:37;14.20;;;11.37;;
7193;SDS011;3638;48.820;9.244;2023-01-25T07:21:05;13.70;;;10.60;;
7193;SDS011;3638;48.820;9.244;2023-01-25T07:23:34;14.10;;;11.90;;
7193;SDS011;3638;48.820;9.244;2023-01-25T07:26:02;13.27;;;11.47;;
7193;SDS011;3638;48.820;9.244;2023-01-25T07:28:31;13.77;;;11.07;;
7193;SDS011;3638;48.820;9.244;2023-01-25T07:31:02;14.37;;;11.53;;
7193;SDS011;3638;48.820;9.244;2023-01-25T07:33:31;15.70;;;11.67;;
7193;SDS011;3638;48.820;9.244;2023-01-25T07:36:00;14.07;;;11.30;;
7193;SDS011;3638;48.820;9.244;2023-01-25T07:38:27;13.50;;;10.90;;
7193;SDS011;3638;48.820;9.244;2023-01-25T07:40:54;13.07;;;11.17;;
7193;SDS011;3638;48.820;9.244;2023-01-25T07:43:21;13.93;;;10.20;;
7193;SDS011;3638;48.820;9.244;2023-01-25T07:45:48;12.40;;;10.37;;
7193;SDS011;3638;48.820;9.244;2023-01-25T07:48:16;14.03;;;11.27;;
7193;SDS011;3638;48.820;9.244;2023-01-25T07:50:44;14.87;;;11.33;;
7193;SDS011;3638;48.820;9.244;2023-01-25T07:53:14;13.20;;;10.87;;
7193;SDS011;3638;48.820;9.244;2023-01-25T07:55:42;16.13;;;11.77;;
7193;SDS011;3638;48.820;9.244;2023-01-25T07:58:09;15.17;;;11.80;;
7193;SDS011;3638;48.820;9.244;2023-01-25T08:00:36;12.43;;;11.03;;
7193;SDS011;3638;48.820;9.244;2023-01-25T08:03:03;14.93;;;11.90;;
7193;SDS011;3638;48.820;9.244;2023-01-25T08:05:32;15.33;;;11.33;;
7193;SDS011;3638;48.820;9.244;2023-01-25T08:07:59;17.93;;;11.83;;
7193;SDS011;3638;48.820;9.244;2023-01-25T08:10:27;15.27;;;11.80;;
7193;SDS011;3638;48.820;9.244;2023-01-25T08:12:54;16.07;;;11.63;;
7193;SDS011;3638;48.820;9.244;2023-01-25T08:15:21;15.07;;;10.60;;
7193;SDS011;3638;48.820;9.244;2023-01-25T08:17:48;15.13;;;11.63;;
7193;SDS011;3638;48.820;9.244;2023-01-25T08:20:15;15.90;;;11.87;;
7193;SDS011;3638;48.820;9.244;2023-01-25T08:22:43;17.00;;;12.07;;
7193;SDS011;3638;48.820;9.244;2023-01-25T08:25:10;13.47;;;10.90;;
7193;SDS011;3638;48.820;9.244;2023-01-25T08:27:38;14.77;;;11.33;;
7193;SDS011;3638;48.820;9.244;2023-01-25T08:30:05;14.67;;;11.33;;
7193;SDS011;3638;48.820;9.244;2023-01-25T08:32:33;15.57;;;11.83;;
7193;SDS011;3638;48.820;9.244;2023-01-25T08:35:00;14.17;;;11.57;;
7193;SDS011;3638;48.820;9.244;2023-01-25T08:37:27;13.97;;;11.33;;
7193;SDS011;3638;48.820;9.244;2023-01-25T08:39:54;12.83;;;10.73;;
7193;SDS011;3638;48.820;9.244;2023-01-25T08:42:23;14.47;;;10.47;;
7193;SDS011;3638;48.820;9.244;2023-01-25T08:44:52;15.13;;;11.67;;
7193;SDS011;3638;48.820;9.244;2023-01-25T08:47:19;14.87;;;11.00;;
7193;SDS011;3638;48.820;9.244;2023-01-25T08:49:46;13.93;;;10.43;;
7193;SDS011;3638;48.820;9.244;2023-01-25T08:52:13;16.83;;;11.63;;
7193;SDS011;3638;48.820;9.244;2023-01-25T08:54:40;14.67;;;11.10;;
7193;SDS011;3638;48.820;9.244;2023-01-25T08:57:08;15.63;;;11.57;;
7193;SDS011;3638;48.820;9.244;2023-01-25T08:59:35;13.27;;;10.53;;
7193;SDS011;3638;48.820;9.244;2023-01-25T09:02:03;13.63;;;11.33;;
7193;SDS011;3638;48.820;9.244;2023-01-25T09:04:30;15.80;;;11.97;;
7193;SDS011;3638;48.820;9.244;2023-01-25T09:06:57;15.87;;;11.77;;
7193;SDS011;3638;48.820;9.244;2023-01-25T09:09:24;14.07;;;11.50;;
7193;SDS011;3638;48.820;9.244;2023-01-25T09:11:50;15.40;;;11.90;;
7193;SDS011;3638;48.820;9.244;2023-01-25T09:14:17;14.27;;;11.60;;
7193;SDS011;3638;48.820;9.244;2023-01-25T09:16:44;16.50;;;12.37;;
7193;SDS011;3638;48.820;9.244;2023-01-25T09:19:12;14.70;;;11.60;;
7193;SDS011;3638;48.820;9.244;2023-01-25T09:21:40;15.47;;;11.47;;
7193;SDS011;3638;48.820;9.244;2023-01-25T09:24:07;15.07;;;11.60;;
7193;SDS011;3638;48.820;9.244;2023-01-25T09:26:34;18.33;;;12.37;;
7193;SDS011;3638;48.820;9.244;2023-01-25T09:29:03;16.70;;;12.20;;
7193;SDS011;3638;48.820;9.244;2023-01-25T09:31:31;17.70;;;12.70;;
7193;SDS011;3638;48.820;9.244;2023-01-25T09:33:59;17.93;;;11.83;;
7193;SDS011;3638;48.820;9.244;2023-01-25T09:36:27;15.20;;;11.53;;
7193;SDS011;3638;48.820;9.244;2023-01-25T09:38:54;13.63;;;10.93;;
7193;SDS011;3638;48.820;9.244;2023-01-25T09:44:35;14.20;;;10.80;;
7193;SDS011;3638;48.820;9.244;2023-01-25T09:47:20;13.80;;;10.97;;
7193;SDS011;3638;48.820;9.244;2023-01-25T09:49:59;15.83;;;11.77;;
7193;SDS011;3638;48.820;9.244;2023-01-25T09:52:55;17.80;;;12.20;;
7193;SDS011;3638;48.820;9.244;2023-01-25T09:55:48;13.60;;;11.77;;
7193;SDS011;3638;48.820;9.244;2023-01-25T09:58:18;16.80;;;12.20;;
7193;SDS011;3638;48.820;9.244;2023-01-25T10:00:49;16.13;;;12.33;;
7193;SDS011;3638;48.820;9.244;2023-01-25T10:03:25;20.13;;;14.40;;
7193;SDS011;3638;48.820;9.244;2023-01-25T10:05:57;16.97;;;12.20;;
7193;SDS011;3638;48.820;9.244;2023-01-25T10:08:30;17.07;;;12.07;;
7193;SDS011;3638;48.820;9.244;2023-01-25T10:11:02;14.77;;;11.33;;
7193;SDS011;3638;48.820;9.244;2023-01-25T10:13:40;12.90;;;10.30;;
7193;SDS011;3638;48.820;9.244;2023-01-25T10:16:10;14.37;;;11.50;;
7193;SDS011;3638;48.820;9.244;2023-01-25T10:18:48;14.27;;;11.23;;
7193;SDS011;3638;48.820;9.244;2023-01-25T10:21:25;18.43;;;13.57;;
7193;SDS011;3638;48.820;9.244;2023-01-25T10:24:04;15.87;;;12.27;;
7193;SDS011;3638;48.820;9.244;2023-01-25T10:26:48;17.70;;;12.60;;
7193;SDS011;3638;48.820;9.244;2023-01-25T10:29:19;18.10;;;12.53;;
7193;SDS011;3638;48.820;9.244;2023-01-25T10:31:47;17.37;;;12.90;;
7193;SDS011;3638;48.820;9.244;2023-01-25T10:34:18;15.77;;;12.80;;
7193;SDS011;3638;48.820;9.244;2023-01-25T10:36:48;16.67;;;10.17;;
7193;SDS011;3638;48.820;9.244;2023-01-25T10:39:20;16.70;;;13.17;;
7193;SDS011;3638;48.820;9.244;2023-01-25T10:41:48;15.10;;;12.40;;
7193;SDS011;3638;48.820;9.244;2023-01-25T10:44:20;18.37;;;13.07;;
7193;SDS011;3638;48.820;9.244;2023-01-25T10:46:49;17.60;;;13.40;;
7193;SDS011;3638;48.820;9.244;2023-01-25T10:49:23;16.60;;;12.53;;
7193;SDS011;3638;48.820;9.244;2023-01-25T10:51:54;17.40;;;12.60;;
7193;SDS011;3638;48.820;9.244;2023-01-25T10:54:23;19.07;;;13.43;;
7193;SDS011;3638;48.820;9.244;2023-01-25T10:56:50;18.63;;;13.80;;
7193;SDS011;3638;48.820;9.244;2023-01-25T10:59:19;17.83;;;13.93;;
7193;SDS011;3638;48.820;9.244;2023-01-25T11:01:49;18.50;;;14.10;;
7193;SDS011;3638;48.820;9.244;2023-01-25T11:04:28;17.87;;;13.63;;
7193;SDS011;3638;48.820;9.244;2023-01-25T11:06:59;19.00;;;14.77;;
7193;SDS011;3638;48.820;9.244;2023-01-25T11:09:35;18.40;;;15.33;;
7193;SDS011;3638;48.820;9.244;2023-01-25T11:12:04;18.17;;;14.70;;
7193;SDS011;3638;48.820;9.244;2023-01-25T11:14:42;16.33;;;13.43;;
7193;SDS011;3638;48.820;9.244;2023-01-25T11:17:19;19.83;;;14.67;;
7193;SDS011;3638;48.820;9.244;2023-01-25T11:20:03;16.20;;;13.43;;
7193;SDS011;3638;48.820;9.244;2023-01-25T11:22:47;15.03;;;12.47;;
7193;SDS011;3638;48.820;9.244;2023-01-25T11:25:28;17.30;;;14.23;;
7193;SDS011;3638;48.820;9.244;2023-01-25T11:28:15;20.27;;;14.13;;
7193;SDS011;3638;48.820;9.244;2023-01-25T11:30:44;18.47;;;14.27;;
7193;SDS011;3638;48.820;9.244;2023-01-25T11:33:13;19.33;;;14.03;;
7193;SDS011;3638;48.820;9.244;2023-01-25T11:35:50;19.03;;;15.00;;
7193;SDS011;3638;48.820;9.244;2023-01-25T11:38:31;19.40;;;14.47;;
7193;SDS011;3638;48.820;9.244;2023-01-25T11:41:03;20.30;;;15.13;;
7193;SDS011;3638;48.820;9.244;2023-01-25T11:43:45;21.50;;;16.37;;
7193;SDS011;3638;48.820;9.244;2023-01-25T11:46:28;20.20;;;15.83;;
7193;SDS011;3638;48.820;9.244;2023-01-25T11:49:14;17.83;;;14.60;;
7193;SDS011;3638;48.820;9.244;2023-01-25T11:52:12;19.90;;;15.50;;
7193;SDS011;3638;48.820;9.244;2023-01-25T11:54:51;18.93;;;14.03;;
7193;SDS011;3638;48.820;9.244;2023-01-25T11:57:49;18.07;;;13.87;;
7193;SDS011;3638;48.820;9.244;2023-01-25T12:00:34;19.00;;;15.13;;
7193;SDS011;3638;48.820;9.244;2023-01-25T12:03:39;22.07;;;15.23;;
7193;SDS011;3638;48.820;9.244;2023-01-25T12:06:27;18.93;;;14.40;;
7193;SDS011;3638;48.820;9.244;2023-01-25T12:09:03;21.27;;;15.30;;
7193;SDS011;3638;48.820;9.244;2023-01-25T12:11:51;20.83;;;15.33;;
7193;SDS011;3638;48.820;9.244;2023-01-25T12:14:35;23.07;;;16.53;;
7193;SDS011;3638;48.820;9.244;2023-01-25T12:17:21;19.00;;;14.20;;
7193;SDS011;3638;48.820;9.244;2023-01-25T12:20:12;20.37;;;15.53;;
7193;SDS011;3638;48.820;9.244;2023-01-25T12:23:00;20.00;;;14.70;;
7193;SDS011;3638;48.820;9.244;2023-01-25T12:25:41;20.67;;;14.83;;
7193;SDS011;3638;48.820;9.244;2023-01-25T12:28:24;19.20;;;14.77;;
7193;SDS011;3638;48.820;9.244;2023-01-25T12:30:56;17.47;;;13.57;;
7193;SDS011;3638;48.820;9.244;2023-01-25T12:33:30;18.97;;;14.63;;
7193;SDS011;3638;48.820;9.244;2023-01-25T12:36:05;21.00;;;14.67;;
7193;SDS011;3638;48.820;9.244;2023-01-25T12:38:38;19.40;;;15.03;;
7193;SDS011;3638;48.820;9.244;2023-01-25T12:41:12;19.73;;;15.53;;
7193;SDS011;3638;48.820;9.244;2023-01-25T12:43:50;19.33;;;15.00;;
7193;SDS011;3638;48.820;9.244;2023-01-25T12:46:23;22.00;;;16.10;;
7193;SDS011;3638;48.820;9.244;2023-01-25T12:48:56;23.47;;;16.40;;
7193;SDS011;3638;48.820;9.244;2023-01-25T12:51:27;19.67;;;14.83;;
7193;SDS011;3638;48.820;9.244;2023-01-25T12:54:09;23.40;;;15.60;;
7193;SDS011;3638;48.820;9.244;2023-01-25T12:56:45;20.83;;;16.00;;
7193;SDS011;3638;48.820;9.244;2023-01-25T12:59:22;20.57;;;15.40;;
7193;SDS011;3638;48.820;9.244;2023-01-25T13:02:06;19.53;;;15.43;;
7193;SDS011;3638;48.820;9.244;2023-01-25T13:04:54;21.00;;;15.03;;
7193;SDS011;3638;48.820;9.244;2023-01-25T13:07:29;20.83;;;15.63;;
7193;SDS011;3638;48.820;9.244;2023-01-25T13:10:07;23.27;;;16.53;;
7193;SDS011;3638;48.820;9.244;2023-01-25T13:12:49;20.17;;;14.87;;
7193;SDS011;3638;48.820;9.244;2023-01-25T13:15:33;22.73;;;17.07;;
7193;SDS011;3638;48.820;9.244;2023-01-25T13:21:07;22.47;;;16.83;;
7193;SDS011;3638;48.820;9.244;2023-01-25T13:23:37;22.33;;;16.73;;
7193;SDS011;3638;48.820;9.244;2023-01-25T13:35:28;23.20;;;16.90;;
7193;SDS011;3638;48.820;9.244;2023-01-25T13:38:25;23.07;;;17.13;;
7193;SDS011;3638;48.820;9.244;2023-01-25T13:41:01;22.27;;;16.70;;
7193;SDS011;3638;48.820;9.244;2023-01-25T13:43:36;21.83;;;16.80;;
7193;SDS011;3638;48.820;9.244;2023-01-25T13:46:05;23.17;;;17.07;;
7193;SDS011;3638;48.820;9.244;2023-01-25T13:48:43;24.47;;;17.73;;
7193;SDS011;3638;48.820;9.244;2023-01-25T13:51:16;24.87;;;16.53;;
7193;SDS011;3638;48.820;9.244;2023-01-25T13:53:53;24.10;;;17.73;;
7193;SDS011;3638;48.820;9.244;2023-01-25T13:56:26;21.20;;;16.10;;
7193;SDS011;3638;48.820;9.244;2023-01-25T13:58:56;23.20;;;16.63;;
7193;SDS011;3638;48.820;9.244;2023-01-25T14:01:23;21.87;;;17.00;;
7193;SDS011;3638;48.820;9.244;2023-01-25T14:03:52;19.97;;;15.83;;
7193;SDS011;3638;48.820;9.244;2023-01-25T14:06:25;23.03;;;17.37;;
7193;SDS011;3638;48.820;9.244;2023-01-25T14:08:55;22.10;;;16.17;;
7193;SDS011;3638;48.820;9.244;2023-01-25T14:11:25;23.40;;;17.23;;
7193;SDS011;3638;48.820;9.244;2023-01-25T14:13:58;20.47;;;15.90;;
7193;SDS011;3638;48.820;9.244;2023-01-25T14:16:27;25.10;;;16.93;;
7193;SDS011;3638;48.820;9.244;2023-01-25T14:18:57;23.17;;;17.23;;
7193;SDS011;3638;48.820;9.244;2023-01-25T14:21:47;27.03;;;18.03;;
7193;SDS011;3638;48.820;9.244;2023-01-25T14:24:15;24.80;;;17.03;;
7193;SDS011;3638;48.820;9.244;2023-01-25T14:26:43;24.37;;;17.70;;
7193;SDS011;3638;48.820;9.244;2023-01-25T14:29:15;22.83;;;17.23;;
7193;SDS011;3638;48.820;9.244;2023-01-25T14:31:45;25.77;;;18.07;;
7193;SDS011;3638;48.820;9.244;2023-01-25T14:34:16;25.50;;;17.37;;
7193;SDS011;3638;48.820;9.244;2023-01-25T14:36:44;26.67;;;19.30;;
7193;SDS011;3638;48.820;9.244;2023-01-25T14:39:15;26.80;;;18.03;;
7193;SDS011;3638;48.820;9.244;2023-01-25T14:41:53;24.60;;;18.43;;
7193;SDS011;3638;48.820;9.244;2023-01-25T14:44:21;23.73;;;19.00;;
7193;SDS011;3638;48.820;9.244;2023-01-25T14:46:49;24.93;;;17.83;;
7193;SDS011;3638;48.820;9.244;2023-01-25T14:49:53;22.40;;;16.97;;
7193;SDS011;3638;48.820;9.244;2023-01-25T14:52:22;25.33;;;18.03;;
7193;SDS011;3638;48.820;9.244;2023-01-25T14:54:53;24.70;;;17.40;;
7193;SDS011;3638;48.820;9.244;2023-01-25T14:57:30;26.20;;;18.13;;
7193;SDS011;3638;48.820;9.244;2023-01-25T15:00:00;25.37;;;18.83;;
7193;SDS011;3638;48.820;9.244;2023-01-25T15:02:32;25.63;;;18.20;;
7193;SDS011;3638;48.820;9.244;2023-01-25T15:05:04;25.77;;;19.23;;
7193;SDS011;3638;48.820;9.244;2023-01-25T15:07:45;27.77;;;19.03;;
7193;SDS011;3638;48.820;9.244;2023-01-25T15:10:18;24.43;;;19.20;;
7193;SDS011;3638;48.820;9.244;2023-01-25T15:12:54;25.60;;;17.97;;
7193;SDS011;3638;48.820;9.244;2023-01-25T15:15:25;26.63;;;19.07;;
7193;SDS011;3638;48.820;9.244;2023-01-25T15:17:54;25.92;;;18.40;;
7193;SDS011;3638;48.820;9.244;2023-01-25T15:23:21;27.57;;;19.63;;
7193;SDS011;3638;48.820;9.244;2023-01-25T15:25:50;27.20;;;18.70;;
7193;SDS011;3638;48.820;9.244;2023-01-25T15:28:19;26.07;;;17.90;;